createdAt,value
2022-11-19T00:01:26.666Z,93.40
2022-11-19T00:03:54.710Z,93.70
2022-11-19T00:06:24.401Z,93.70
2022-11-19T00:08:51.901Z,93.60
2022-11-19T00:11:43.672Z,93.60
2022-11-19T00:14:13.128Z,93.40
2022-11-19T00:16:41.216Z,92.80
2022-11-19T00:19:11.011Z,92.70
2022-11-19T00:21:39.125Z,92.80
2022-11-19T00:24:06.959Z,92.80
2022-11-19T00:26:34.444Z,92.90
2022-11-19T00:29:02.135Z,93.00
2022-11-19T00:31:29.569Z,93.20
2022-11-19T00:33:56.845Z,93.40
2022-11-19T00:36:24.455Z,93.60
2022-11-19T00:38:51.825Z,93.80
2022-11-19T00:41:20.014Z,94.00
2022-11-19T00:43:47.496Z,94.40
2022-11-19T00:46:22.373Z,94.60
2022-11-19T00:48:51.620Z,94.70
2022-11-19T00:51:20.122Z,94.90
2022-11-19T00:53:47.645Z,95.20
2022-11-19T00:56:18.528Z,95.40
2022-11-19T00:58:46.831Z,95.60
2022-11-19T01:01:15.526Z,95.60
2022-11-19T01:03:43.510Z,95.50
2022-11-19T01:06:13.207Z,95.40
2022-11-19T01:08:43.720Z,95.40
2022-11-19T01:11:20.290Z,95.40
2022-11-19T01:13:48.063Z,95.30
2022-11-19T01:16:24.165Z,95.50
2022-11-19T01:18:51.859Z,95.30
2022-11-19T01:21:21.338Z,95.20
2022-11-19T01:23:49.095Z,95.20
2022-11-19T01:26:16.821Z,95.50
2022-11-19T01:28:45.507Z,95.10
2022-11-19T01:31:18.614Z,94.70
2022-11-19T01:33:46.442Z,94.40
2022-11-19T01:36:22.843Z,94.40
2022-11-19T01:38:51.943Z,94.40
2022-11-19T01:41:21.135Z,94.50
2022-11-19T01:44:28.752Z,94.40
2022-11-19T01:46:56.112Z,94.20
2022-11-19T01:49:23.368Z,94.30
2022-11-19T01:52:00.888Z,94.40
2022-11-19T01:54:39.416Z,94.30
2022-11-19T01:57:10.015Z,94.50
2022-11-19T01:59:38.576Z,94.40
2022-11-19T02:02:05.935Z,94.60
2022-11-19T02:04:35.231Z,94.70
2022-11-19T02:07:02.917Z,95.00
2022-11-19T02:09:30.782Z,95.00
2022-11-19T02:12:11.853Z,95.00
2022-11-19T02:15:03.433Z,95.10
2022-11-19T02:18:02.407Z,95.30
2022-11-19T02:20:51.965Z,95.30
2022-11-19T02:23:46.726Z,95.40
2022-11-19T02:26:44.075Z,95.40
2022-11-19T02:29:29.282Z,95.30
2022-11-19T02:32:01.868Z,95.30
2022-11-19T02:34:30.678Z,95.30
2022-11-19T02:37:03.606Z,95.20
2022-11-19T02:39:43.796Z,95.10
2022-11-19T02:42:15.766Z,95.20
2022-11-19T02:44:59.661Z,95.30
2022-11-19T02:47:47.260Z,95.60
2022-11-19T02:50:51.800Z,95.30
2022-11-19T02:53:19.244Z,95.40
2022-11-19T02:56:09.238Z,95.40
2022-11-19T02:58:58.725Z,95.60
2022-11-19T03:01:48.396Z,95.80
2022-11-19T03:04:29.891Z,95.80
2022-11-19T03:07:19.038Z,95.80
2022-11-19T03:09:54.745Z,95.70
2022-11-19T03:12:22.017Z,95.60
2022-11-19T03:15:16.172Z,95.70
2022-11-19T03:18:07.105Z,95.80
2022-11-19T03:20:44.027Z,95.80
2022-11-19T03:23:19.753Z,95.80
2022-11-19T03:26:18.678Z,95.80
2022-11-19T03:28:48.050Z,95.70
2022-11-19T03:31:18.176Z,95.60
2022-11-19T03:33:49.883Z,95.50
2022-11-19T03:36:30.047Z,95.30
2022-11-19T03:39:00.860Z,95.20
2022-11-19T03:41:30.284Z,95.10
2022-11-19T03:44:06.010Z,94.80
2022-11-19T03:46:35.831Z,95.00
2022-11-19T03:49:05.604Z,95.20
2022-11-19T03:51:40.995Z,95.30
2022-11-19T03:54:08.962Z,95.50
2022-11-19T03:56:39.427Z,95.10
2022-11-19T03:59:09.643Z,95.10
2022-11-19T04:01:38.069Z,95.10
2022-11-19T04:04:24.203Z,95.20
2022-11-19T04:06:51.582Z,95.20
2022-11-19T04:09:19.225Z,95.20
2022-11-19T04:14:12.823Z,95.30
2022-11-19T04:16:40.099Z,95.30
2022-11-19T04:19:07.342Z,95.30
2022-11-19T04:21:34.628Z,95.20
2022-11-19T04:24:01.987Z,95.40
2022-11-19T04:26:29.383Z,95.50
2022-11-19T04:28:56.604Z,95.50
2022-11-19T04:31:24.024Z,95.50
2022-11-19T04:33:51.276Z,95.50
2022-11-19T04:36:18.532Z,95.40
2022-11-19T04:38:45.775Z,95.40
2022-11-19T04:41:13.022Z,95.60
2022-11-19T04:43:40.474Z,95.80
2022-11-19T04:46:07.852Z,95.80
2022-11-19T04:48:35.105Z,95.60
2022-11-19T04:51:02.502Z,95.50
2022-11-19T04:53:30.018Z,95.50
2022-11-19T04:55:57.231Z,95.40
2022-11-19T04:58:24.614Z,95.30
2022-11-19T05:00:52.246Z,95.30
2022-11-19T05:03:19.582Z,95.30
2022-11-19T05:05:46.933Z,95.30
2022-11-19T05:08:14.180Z,95.10
2022-11-19T05:10:41.782Z,95.10
2022-11-19T05:13:09.058Z,95.00
2022-11-19T05:15:36.524Z,94.90
2022-11-19T05:18:03.954Z,94.80
2022-11-19T05:20:31.426Z,94.80
2022-11-19T05:22:58.767Z,94.80
2022-11-19T05:25:26.364Z,95.10
2022-11-19T05:27:54.059Z,94.90
2022-11-19T05:30:21.420Z,94.80
2022-11-19T05:32:48.897Z,94.60
2022-11-19T05:35:16.277Z,94.60
2022-11-19T05:37:43.503Z,94.40
2022-11-19T05:40:11.355Z,94.40
2022-11-19T05:42:38.769Z,94.20
2022-11-19T05:45:06.888Z,94.00
2022-11-19T05:47:34.343Z,93.90
2022-11-19T05:50:01.786Z,93.90
2022-11-19T05:52:29.029Z,94.00
2022-11-19T05:54:56.246Z,93.70
2022-11-19T05:57:23.844Z,93.70
2022-11-19T05:59:51.302Z,93.60
2022-11-19T06:02:18.638Z,93.50
2022-11-19T06:04:45.850Z,93.30
2022-11-19T06:07:13.135Z,93.10
2022-11-19T06:09:40.394Z,93.00
2022-11-19T06:12:09.229Z,93.20
2022-11-19T06:14:37.670Z,92.90
2022-11-19T06:17:04.990Z,92.70
2022-11-19T06:19:32.265Z,92.50
2022-11-19T06:22:00.914Z,92.10
2022-11-19T06:24:31.896Z,92.00
2022-11-19T06:26:59.192Z,92.10
2022-11-19T06:29:26.604Z,92.20
2022-11-19T06:31:54.296Z,92.10
2022-11-19T06:34:21.801Z,91.90
2022-11-19T06:36:50.920Z,91.90
2022-11-19T06:39:19.265Z,91.90
2022-11-19T06:41:48.909Z,91.80
2022-11-19T06:44:16.393Z,91.90
2022-11-19T06:46:43.814Z,92.00
2022-11-19T06:49:16.826Z,92.00
2022-11-19T06:51:47.150Z,92.10
2022-11-19T06:54:14.788Z,91.90
2022-11-19T06:56:42.027Z,92.00
2022-11-19T06:59:09.390Z,92.10
2022-11-19T07:01:36.854Z,92.20
2022-11-19T07:04:04.362Z,92.30
2022-11-19T07:06:31.650Z,92.20
2022-11-19T07:08:59.245Z,92.10
2022-11-19T07:11:26.487Z,91.80
2022-11-19T07:13:57.835Z,91.70
2022-11-19T07:16:27.105Z,91.90
2022-11-19T07:18:54.617Z,91.60
2022-11-19T07:21:21.912Z,91.70
2022-11-19T07:23:49.182Z,91.80
2022-11-19T07:26:16.413Z,91.80
2022-11-19T07:28:43.828Z,91.80
2022-11-19T07:31:11.235Z,91.50
2022-11-19T07:33:39.470Z,91.50
2022-11-19T07:36:08.088Z,91.60
2022-11-19T07:38:37.111Z,91.40
2022-11-19T07:41:25.731Z,91.10
2022-11-19T07:43:53.023Z,90.70
2022-11-19T07:46:20.452Z,90.70
2022-11-19T07:48:47.704Z,90.70
2022-11-19T07:51:14.998Z,90.40
2022-11-19T07:53:42.778Z,90.50
2022-11-19T07:56:10.038Z,90.50
2022-11-19T07:58:37.312Z,90.50
2022-11-19T08:01:12.846Z,90.20
2022-11-19T08:03:42.559Z,90.60
2022-11-19T08:06:10.196Z,90.50
2022-11-19T08:08:37.442Z,90.30
2022-11-19T08:11:06.420Z,90.10
2022-11-19T08:13:34.886Z,90.00
2022-11-19T08:16:04.404Z,90.20
2022-11-19T08:18:32.116Z,90.10
2022-11-19T08:21:08.797Z,90.10
2022-11-19T08:23:37.292Z,89.90
2022-11-19T08:26:07.098Z,89.40
2022-11-19T08:28:34.694Z,88.90
2022-11-19T08:31:09.438Z,89.00
2022-11-19T08:33:36.736Z,87.90
2022-11-19T08:36:04.488Z,87.20
2022-11-19T08:38:37.226Z,87.10
2022-11-19T08:41:24.541Z,87.20
2022-11-19T08:43:51.801Z,87.00
2022-11-19T08:46:19.104Z,87.70
2022-11-19T08:48:46.361Z,89.30
2022-11-19T08:51:14.875Z,89.30
2022-11-19T08:53:42.433Z,89.40
2022-11-19T08:56:12.820Z,90.20
2022-11-19T08:58:44.093Z,88.90
2022-11-19T09:01:13.082Z,89.00
2022-11-19T09:03:40.836Z,89.70
2022-11-19T09:06:09.203Z,88.60
2022-11-19T09:08:37.117Z,88.40
2022-11-19T09:11:13.092Z,86.30
2022-11-19T09:13:40.884Z,87.10
2022-11-19T09:16:09.053Z,86.70
2022-11-19T09:18:40.161Z,88.10
2022-11-19T09:21:09.722Z,87.50
2022-11-19T09:23:37.128Z,85.60
2022-11-19T09:26:07.193Z,86.00
2022-11-19T09:28:34.968Z,85.90
2022-11-19T09:31:16.730Z,87.30
2022-11-19T09:33:48.404Z,86.80
2022-11-19T09:36:17.864Z,85.40
2022-11-19T09:38:45.741Z,84.70
2022-11-19T09:41:55.341Z,83.70
2022-11-19T09:44:56.374Z,84.60
2022-11-19T09:47:52.886Z,84.90
2022-11-19T09:50:33.030Z,82.70
2022-11-19T09:53:14.065Z,81.60
2022-11-19T09:55:45.341Z,82.00
2022-11-19T09:58:34.302Z,81.70
2022-11-19T10:01:01.970Z,82.60
2022-11-19T10:03:33.480Z,82.50
2022-11-19T10:06:07.416Z,81.80
2022-11-19T10:08:57.686Z,81.20
2022-11-19T10:11:52.347Z,81.30
2022-11-19T10:14:55.124Z,80.40
2022-11-19T10:17:33.230Z,82.40
2022-11-19T10:20:34.114Z,83.90
2022-11-19T10:23:39.706Z,83.00
2022-11-19T10:26:13.242Z,81.80
2022-11-19T10:28:56.956Z,82.40
2022-11-19T10:31:39.570Z,80.10
2022-11-19T10:34:13.005Z,77.70
2022-11-19T10:36:44.618Z,78.20
2022-11-19T10:39:44.083Z,78.10
2022-11-19T10:42:11.303Z,77.80
2022-11-19T10:44:49.495Z,76.80
2022-11-19T10:47:22.322Z,76.70
2022-11-19T10:49:54.721Z,78.10
2022-11-19T10:52:29.954Z,78.60
2022-11-19T10:55:03.968Z,76.20
2022-11-19T10:57:33.071Z,75.30
2022-11-19T11:00:11.055Z,76.40
2022-11-19T11:02:59.627Z,75.90
2022-11-19T11:05:27.809Z,76.20
2022-11-19T11:08:01.024Z,75.90
2022-11-19T11:10:32.116Z,76.10
2022-11-19T11:13:36.301Z,76.40
2022-11-19T11:16:11.937Z,75.10
2022-11-19T11:18:40.788Z,75.80
2022-11-19T11:21:14.050Z,77.00
2022-11-19T11:23:52.683Z,76.80
2022-11-19T11:26:27.046Z,77.30
2022-11-19T11:29:21.991Z,76.40
2022-11-19T11:31:49.526Z,76.30
2022-11-19T11:34:26.016Z,75.80
2022-11-19T11:36:54.579Z,75.90
2022-11-19T11:39:44.287Z,75.50
2022-11-19T11:42:18.670Z,74.50
2022-11-19T11:45:00.756Z,74.90
2022-11-19T11:47:31.144Z,75.00
2022-11-19T11:50:07.764Z,75.00
2022-11-19T11:52:41.969Z,75.20
2022-11-19T11:55:24.488Z,75.10
2022-11-19T11:58:01.125Z,74.90
2022-11-19T12:00:43.440Z,75.30
2022-11-19T12:03:14.021Z,75.00
2022-11-19T12:06:02.329Z,74.80
2022-11-19T12:08:35.584Z,75.10
2022-11-19T12:11:27.536Z,75.20
2022-11-19T12:14:11.206Z,74.10
2022-11-19T12:17:04.157Z,74.50
2022-11-19T12:19:41.607Z,75.00
2022-11-19T12:22:39.315Z,74.90
2022-11-19T12:25:19.445Z,75.50
2022-11-19T12:28:01.743Z,75.40
2022-11-19T12:30:42.770Z,75.10
2022-11-19T12:33:28.685Z,74.00
2022-11-19T12:36:23.118Z,73.90
2022-11-19T12:39:10.675Z,74.20
2022-11-19T12:41:48.052Z,74.40
2022-11-19T12:44:32.464Z,74.40
2022-11-19T12:47:44.692Z,74.40
2022-11-19T12:50:27.496Z,74.10
2022-11-19T12:53:32.571Z,73.60
2022-11-19T12:56:37.192Z,73.80
2022-11-19T12:59:16.526Z,73.40
2022-11-19T13:01:48.756Z,73.40
2022-11-19T13:04:40.430Z,72.90
2022-11-19T13:07:19.075Z,72.30
2022-11-19T13:09:54.620Z,71.80
2022-11-19T13:12:26.705Z,71.80
2022-11-19T13:15:04.815Z,71.30
2022-11-19T13:17:40.435Z,71.70
2022-11-19T13:20:51.471Z,71.40
2022-11-19T13:23:26.342Z,70.70
2022-11-19T13:26:06.338Z,71.30
2022-11-19T13:28:52.231Z,71.90
2022-11-19T13:31:28.475Z,71.40
2022-11-19T13:34:19.184Z,71.70
2022-11-19T13:36:58.680Z,72.70
2022-11-19T13:39:41.623Z,72.50
2022-11-19T13:42:28.658Z,73.10
2022-11-19T13:44:56.005Z,73.40
2022-11-19T13:47:27.080Z,73.30
2022-11-19T13:50:02.028Z,72.50
2022-11-19T13:52:43.795Z,73.30
2022-11-19T13:55:41.337Z,73.20
2022-11-19T13:58:14.405Z,73.50
2022-11-19T14:00:57.308Z,73.70
2022-11-19T14:03:47.582Z,73.70
2022-11-19T14:06:23.664Z,73.50
2022-11-19T14:08:56.101Z,74.20
2022-11-19T14:11:59.002Z,74.60
2022-11-19T14:15:28.183Z,74.80
2022-11-19T14:18:24.226Z,74.70
2022-11-19T14:21:09.971Z,74.90
2022-11-19T14:24:08.676Z,75.20
2022-11-19T14:26:42.058Z,75.30
2022-11-19T14:29:27.577Z,75.30
2022-11-19T14:32:00.665Z,74.80
2022-11-19T14:34:30.523Z,74.90
2022-11-19T14:37:00.733Z,75.20
2022-11-19T14:39:38.565Z,75.30
2022-11-19T14:42:14.925Z,75.30
2022-11-19T14:44:46.637Z,75.50
2022-11-19T14:47:24.412Z,75.40
2022-11-19T14:49:55.008Z,75.40
2022-11-19T14:52:23.643Z,75.60
2022-11-19T14:55:00.386Z,75.60
2022-11-19T14:57:41.537Z,75.90
2022-11-19T15:00:14.916Z,76.10
2022-11-19T15:02:46.501Z,75.90
2022-11-19T15:05:16.778Z,76.20
2022-11-19T15:07:56.283Z,76.20
2022-11-19T15:10:27.726Z,76.60
2022-11-19T15:13:18.744Z,76.40
2022-11-19T15:15:49.665Z,76.00
2022-11-19T15:18:26.232Z,76.00
2022-11-19T15:21:37.811Z,75.80
2022-11-19T15:24:29.821Z,75.70
2022-11-19T15:27:15.816Z,76.00
2022-11-19T15:30:04.645Z,75.80
2022-11-19T15:32:56.485Z,75.90
2022-11-19T15:35:37.637Z,75.70
2022-11-19T15:38:22.911Z,76.60
2022-11-19T15:40:54.994Z,76.80
2022-11-19T15:43:22.333Z,76.90
2022-11-19T15:46:13.745Z,76.60
2022-11-19T15:49:19.054Z,76.90
2022-11-19T15:51:55.667Z,76.70
2022-11-19T15:54:28.455Z,76.00
2022-11-19T15:57:00.549Z,76.40
2022-11-19T15:59:29.173Z,76.40
2022-11-19T16:02:01.666Z,76.50
2022-11-19T16:04:38.958Z,76.50
2022-11-19T16:07:08.869Z,76.50
2022-11-19T16:09:37.417Z,77.20
2022-11-19T16:12:23.287Z,77.20
2022-11-19T16:15:10.617Z,77.20
2022-11-19T16:17:47.274Z,77.40
2022-11-19T16:20:22.520Z,77.90
2022-11-19T16:22:56.365Z,77.90
2022-11-19T16:25:37.505Z,77.70
2022-11-19T16:28:24.145Z,77.50
2022-11-19T16:31:03.087Z,77.80
2022-11-19T16:33:32.680Z,78.20
2022-11-19T16:36:29.771Z,78.20
2022-11-19T16:38:58.098Z,78.50
2022-11-19T16:41:44.478Z,78.50
2022-11-19T16:44:17.798Z,78.60
2022-11-19T16:46:45.863Z,78.40
2022-11-19T16:49:31.109Z,78.50
2022-11-19T16:51:59.453Z,78.40
2022-11-19T16:54:47.000Z,78.50
2022-11-19T16:57:20.432Z,78.60
2022-11-19T16:59:54.118Z,78.80
2022-11-19T17:02:25.200Z,78.60
2022-11-19T17:04:53.883Z,78.50
2022-11-19T17:07:27.319Z,78.70
2022-11-19T17:10:30.154Z,78.90
2022-11-19T17:13:19.846Z,78.90
2022-11-19T17:15:49.234Z,79.10
2022-11-19T17:18:35.268Z,78.60
2022-11-19T17:21:04.062Z,78.10
2022-11-19T17:23:34.803Z,78.10
2022-11-19T17:26:07.884Z,77.60
2022-11-19T17:28:46.554Z,78.60
2022-11-19T17:31:21.051Z,78.00
2022-11-19T17:33:56.044Z,77.90
2022-11-19T17:36:26.395Z,77.90
2022-11-19T17:38:54.285Z,77.60
2022-11-19T17:41:47.624Z,77.80
2022-11-19T17:44:35.828Z,78.30
2022-11-19T17:47:21.066Z,78.70
2022-11-19T17:49:49.440Z,78.50
2022-11-19T17:52:24.755Z,78.10
2022-11-19T17:54:55.102Z,78.30
2022-11-19T17:57:22.450Z,78.30
2022-11-19T17:59:49.946Z,78.30
2022-11-19T18:02:19.972Z,78.40
2022-11-19T18:04:48.187Z,78.10
2022-11-19T18:07:15.800Z,78.20
2022-11-19T18:09:44.056Z,78.20
2022-11-19T18:12:16.593Z,78.40
2022-11-19T18:14:46.284Z,79.10
2022-11-19T18:17:15.207Z,79.20
2022-11-19T18:19:42.490Z,79.40
2022-11-19T18:22:20.171Z,79.50
2022-11-19T18:24:48.861Z,79.20
2022-11-19T18:27:17.000Z,79.20
2022-11-19T18:29:44.418Z,79.20
2022-11-19T18:32:16.117Z,79.10
2022-11-19T18:34:44.434Z,79.00
2022-11-19T18:37:13.297Z,78.70
2022-11-19T18:39:40.699Z,78.70
2022-11-19T18:42:11.239Z,79.30
2022-11-19T18:44:38.907Z,79.30
2022-11-19T18:47:08.645Z,79.30
2022-11-19T18:49:36.816Z,79.20
2022-11-19T18:52:11.028Z,78.90
2022-11-19T18:54:38.657Z,79.20
2022-11-19T18:57:05.954Z,79.30
2022-11-19T18:59:33.315Z,79.40
2022-11-19T19:02:00.698Z,79.40
2022-11-19T19:04:28.117Z,79.30
2022-11-19T19:06:55.848Z,79.20
2022-11-19T19:09:23.692Z,79.40
2022-11-19T19:12:13.402Z,79.60
2022-11-19T19:14:42.503Z,79.50
2022-11-19T19:17:10.791Z,79.60
2022-11-19T19:19:39.249Z,79.10
2022-11-19T19:22:07.232Z,79.50
2022-11-19T19:24:34.651Z,79.90
2022-11-19T19:27:02.618Z,80.10
2022-11-19T19:29:29.976Z,80.10
2022-11-19T19:31:58.142Z,80.50
2022-11-19T19:34:25.446Z,80.30
2022-11-19T19:36:54.443Z,79.90
2022-11-19T19:39:22.202Z,79.40
2022-11-19T19:41:49.709Z,79.60
2022-11-19T19:44:17.504Z,79.80
2022-11-19T19:46:48.722Z,79.40
2022-11-19T19:49:15.986Z,79.60
2022-11-19T19:51:43.406Z,79.80
2022-11-19T19:54:10.793Z,79.70
2022-11-19T19:56:39.753Z,79.80
2022-11-19T19:59:07.091Z,80.00
2022-11-19T20:01:36.096Z,80.00
2022-11-19T20:04:09.056Z,80.00
2022-11-19T20:06:41.008Z,80.00
2022-11-19T20:09:09.194Z,79.90
2022-11-19T20:11:37.927Z,79.60
2022-11-19T20:14:05.846Z,80.20
2022-11-19T20:16:34.027Z,79.60
2022-11-19T20:19:02.056Z,79.70
2022-11-19T20:21:34.019Z,79.80
2022-11-19T20:24:04.874Z,79.70
2022-11-19T20:26:34.619Z,79.80
2022-11-19T20:29:05.234Z,80.20
2022-11-19T20:31:34.149Z,80.20
2022-11-19T20:34:03.848Z,80.30
2022-11-19T20:36:33.638Z,80.20
2022-11-19T20:39:01.889Z,80.20
2022-11-19T20:41:48.118Z,79.90
2022-11-19T20:44:21.041Z,79.90
2022-11-19T20:47:02.435Z,80.10
2022-11-19T20:49:33.093Z,79.80
2022-11-19T20:52:01.480Z,80.20
2022-11-19T20:54:29.214Z,80.60
2022-11-19T20:56:57.878Z,80.20
2022-11-19T20:59:26.345Z,79.90
2022-11-19T21:01:55.578Z,79.80
2022-11-19T21:04:25.376Z,80.20
2022-11-19T21:06:56.199Z,80.20
2022-11-19T21:09:24.389Z,79.80
2022-11-19T21:11:52.136Z,80.60
2022-11-19T21:14:19.910Z,80.20
2022-11-19T21:16:47.270Z,80.10
2022-11-19T21:19:15.976Z,80.40
2022-11-19T21:21:44.870Z,81.00
2022-11-19T21:24:12.553Z,80.60
2022-11-19T21:26:40.159Z,80.80
2022-11-19T21:29:07.903Z,80.50
2022-11-19T21:31:40.599Z,80.50
2022-11-19T21:34:10.859Z,80.20
2022-11-19T21:36:38.667Z,80.60
2022-11-19T21:39:07.355Z,80.40
2022-11-19T21:41:34.965Z,80.60
2022-11-19T21:44:03.220Z,80.90
2022-11-19T21:46:30.722Z,80.90
2022-11-19T21:48:58.413Z,80.90
2022-11-19T21:51:26.045Z,81.20
2022-11-19T21:53:57.469Z,81.10
2022-11-19T21:56:26.885Z,81.20
2022-11-19T21:58:54.420Z,81.20
2022-11-19T22:01:21.852Z,81.30
2022-11-19T22:03:49.226Z,81.20
2022-11-19T22:06:16.591Z,81.30
2022-11-19T22:08:44.388Z,81.00
2022-11-19T22:11:31.183Z,81.20
2022-11-19T22:14:05.179Z,81.20
2022-11-19T22:16:35.525Z,80.90
2022-11-19T22:19:03.309Z,81.00
2022-11-19T22:21:30.640Z,81.10
2022-11-19T22:23:58.162Z,81.10
2022-11-19T22:26:25.847Z,80.60
2022-11-19T22:28:53.227Z,80.60
2022-11-19T22:31:20.606Z,80.50
2022-11-19T22:33:49.748Z,80.20
2022-11-19T22:36:18.829Z,80.30
2022-11-19T22:38:46.085Z,80.50
2022-11-19T22:41:15.859Z,80.90
2022-11-19T22:43:43.581Z,81.00
2022-11-19T22:46:13.338Z,81.20
2022-11-19T22:48:41.136Z,80.80
2022-11-19T22:51:12.667Z,80.90
2022-11-19T22:53:40.477Z,80.90
2022-11-19T22:56:10.103Z,80.60
2022-11-19T22:58:38.554Z,80.60
2022-11-19T23:01:07.981Z,81.00
2022-11-19T23:03:37.104Z,81.20
2022-11-19T23:06:04.687Z,81.30
2022-11-19T23:08:31.924Z,81.20
2022-11-19T23:11:01.147Z,81.40
2022-11-19T23:13:33.680Z,81.00
2022-11-19T23:16:05.970Z,80.90
2022-11-19T23:18:36.375Z,81.00
2022-11-19T23:21:25.213Z,81.00
2022-11-19T23:23:53.055Z,80.50
2022-11-19T23:26:22.685Z,80.80
2022-11-19T23:28:50.271Z,81.50
2022-11-19T23:31:20.669Z,81.80
2022-11-19T23:33:48.897Z,81.90
2022-11-19T23:36:19.366Z,82.30
2022-11-19T23:38:47.044Z,82.70
2022-11-19T23:41:16.538Z,83.40
2022-11-19T23:43:44.457Z,83.40
2022-11-19T23:46:20.597Z,83.40
2022-11-19T23:48:49.523Z,83.10
2022-11-19T23:51:38.763Z,82.90
2022-11-19T23:54:06.325Z,83.20
2022-11-19T23:56:35.847Z,82.80
2022-11-19T23:59:04.734Z,83.00
